createdAt,value
2023-02-23T00:00:28.372Z,15.05
2023-02-23T00:05:35.857Z,14.90
2023-02-23T00:10:39.067Z,15.90
2023-02-23T00:15:40.990Z,15.70
2023-02-23T00:20:48.553Z,17.02
2023-02-23T00:25:50.376Z,18.92
2023-02-23T00:30:52.615Z,17.65
2023-02-23T00:35:55.603Z,18.08
2023-02-23T00:40:57.395Z,16.00
2023-02-23T00:45:59.262Z,15.70
2023-02-23T00:51:05.946Z,17.42
2023-02-23T00:56:12.127Z,13.85
2023-02-23T01:01:15.142Z,14.43
2023-02-23T01:06:17.939Z,14.27
2023-02-23T01:11:23.177Z,13.25
2023-02-23T01:16:28.420Z,15.27
2023-02-23T01:21:33.098Z,19.75
2023-02-23T01:26:38.054Z,15.75
2023-02-23T01:31:43.478Z,15.00
2023-02-23T01:36:45.624Z,18.75
2023-02-23T01:41:48.669Z,16.55
2023-02-23T01:46:50.675Z,12.93
2023-02-23T01:52:15.994Z,13.85
2023-02-23T01:57:22.247Z,15.43
2023-02-23T02:02:33.526Z,16.42
2023-02-23T02:07:39.742Z,14.15
2023-02-23T02:12:44.924Z,14.05
2023-02-23T02:18:09.571Z,15.27
2023-02-23T02:23:42.341Z,16.42
2023-02-23T02:28:59.694Z,14.20
2023-02-23T02:34:02.648Z,19.25
2023-02-23T02:39:35.977Z,13.43
2023-02-23T02:45:07.763Z,15.75
2023-02-23T02:50:24.879Z,14.07
2023-02-23T02:55:34.139Z,16.52
2023-02-23T03:00:56.194Z,21.98
2023-02-23T03:06:17.887Z,15.10
2023-02-23T03:11:38.197Z,17.05
2023-02-23T03:17:23.491Z,15.52
2023-02-23T03:22:53.436Z,17.52
2023-02-23T03:28:43.391Z,15.07
2023-02-23T03:34:15.034Z,18.73
2023-02-23T03:39:49.833Z,18.13
2023-02-23T03:45:13.132Z,16.60
2023-02-23T03:50:40.521Z,15.27
2023-02-23T03:56:06.267Z,13.68
2023-02-23T04:01:29.015Z,16.98
2023-02-23T04:06:54.495Z,17.23
2023-02-23T04:12:30.177Z,16.00
2023-02-23T04:17:32.939Z,25.63
2023-02-23T04:22:35.630Z,16.17
2023-02-23T04:27:37.574Z,17.63
2023-02-23T04:32:39.422Z,17.55
2023-02-23T04:37:41.535Z,19.83
2023-02-23T04:42:43.441Z,20.58
2023-02-23T04:47:45.789Z,14.65
2023-02-23T04:52:47.852Z,16.75
2023-02-23T04:57:49.832Z,17.17
2023-02-23T05:02:51.732Z,17.27
2023-02-23T05:07:55.163Z,17.15
2023-02-23T05:12:58.417Z,15.93
2023-02-23T05:18:00.440Z,18.92
2023-02-23T05:23:02.338Z,13.13
2023-02-23T05:28:04.888Z,18.38
2023-02-23T05:33:06.754Z,21.05
2023-02-23T05:38:08.597Z,18.67
2023-02-23T05:43:10.554Z,25.77
2023-02-23T05:48:13.658Z,29.88
2023-02-23T05:53:15.613Z,46.28
2023-02-23T05:58:17.428Z,51.17
2023-02-23T06:03:19.538Z,43.85
2023-02-23T06:08:21.895Z,49.88
2023-02-23T06:13:23.933Z,41.85
2023-02-23T06:18:27.267Z,31.90
2023-02-23T06:23:30.370Z,30.08
2023-02-23T06:28:32.402Z,20.58
2023-02-23T06:33:34.291Z,20.00
2023-02-23T06:38:37.624Z,28.80
2023-02-23T06:43:39.700Z,22.02
2023-02-23T06:48:41.574Z,21.33
2023-02-23T06:53:43.324Z,22.88
2023-02-23T06:58:46.751Z,21.67
2023-02-23T07:03:48.811Z,22.75
2023-02-23T07:08:50.711Z,25.13
2023-02-23T07:13:52.647Z,20.80
2023-02-23T07:18:55.707Z,22.00
2023-02-23T07:23:58.339Z,22.92
2023-02-23T07:29:00.767Z,19.40
2023-02-23T07:34:02.669Z,20.50
2023-02-23T07:39:05.251Z,24.52
2023-02-23T07:44:07.347Z,22.80
2023-02-23T07:49:09.547Z,20.50
2023-02-23T07:54:11.473Z,21.05
2023-02-23T08:00:37.162Z,25.60
2023-02-23T08:05:40.147Z,16.83
2023-02-23T08:10:42.252Z,24.80
2023-02-23T08:15:44.236Z,25.13
2023-02-23T08:20:47.025Z,25.83
2023-02-23T08:25:49.133Z,28.80
2023-02-23T08:30:51.066Z,29.08
2023-02-23T08:35:53.737Z,22.90
2023-02-23T08:40:55.570Z,23.63
2023-02-23T08:45:57.738Z,22.73
2023-02-23T08:51:00.051Z,27.75
2023-02-23T08:56:06.154Z,25.10
2023-02-23T09:01:08.641Z,19.45
2023-02-23T09:06:15.394Z,26.33
2023-02-23T09:11:17.868Z,28.75
2023-02-23T09:16:20.467Z,25.85
2023-02-23T09:21:25.506Z,19.83
2023-02-23T09:26:29.593Z,22.10
2023-02-23T09:31:31.507Z,26.50
2023-02-23T09:36:33.470Z,24.45
2023-02-23T09:41:35.440Z,24.55
2023-02-23T09:46:53.868Z,19.60
2023-02-23T09:51:59.210Z,27.38
2023-02-23T09:57:04.961Z,20.95
2023-02-23T10:02:21.486Z,22.73
2023-02-23T10:07:53.004Z,23.42
2023-02-23T10:13:59.231Z,27.05
2023-02-23T10:19:08.105Z,21.45
2023-02-23T10:24:18.152Z,26.23
2023-02-23T10:29:39.550Z,20.35
2023-02-23T10:34:43.014Z,23.27
2023-02-23T10:39:45.329Z,20.13
2023-02-23T10:44:48.224Z,20.73
2023-02-23T10:49:52.495Z,21.30
2023-02-23T10:54:55.450Z,21.33
2023-02-23T11:00:07.132Z,23.85
2023-02-23T11:05:51.450Z,19.13
2023-02-23T11:11:02.420Z,19.75
2023-02-23T11:16:14.098Z,19.88
2023-02-23T11:21:27.136Z,16.75
2023-02-23T11:26:36.239Z,16.40
2023-02-23T11:31:40.872Z,19.17
2023-02-23T11:36:42.950Z,16.70
2023-02-23T11:41:44.768Z,16.00
2023-02-23T11:46:47.073Z,18.83
2023-02-23T11:51:52.317Z,15.13
2023-02-23T11:56:55.599Z,19.83
2023-02-23T12:02:19.272Z,16.80
2023-02-23T12:07:31.665Z,15.13
2023-02-23T12:12:51.112Z,15.32
2023-02-23T12:18:04.779Z,16.25
2023-02-23T12:23:12.586Z,14.43
2023-02-23T12:28:27.240Z,15.45
2023-02-23T12:33:39.406Z,18.85
2023-02-23T12:39:10.098Z,16.90
2023-02-23T12:44:34.583Z,14.70
2023-02-23T12:49:39.760Z,16.73
2023-02-23T12:54:44.036Z,13.65
2023-02-23T12:59:51.778Z,26.75
2023-02-23T13:05:27.098Z,14.48
2023-02-23T13:10:46.302Z,16.65
2023-02-23T13:15:59.393Z,15.82
2023-02-23T13:21:04.360Z,12.32
2023-02-23T13:26:10.986Z,14.82
2023-02-23T13:31:41.311Z,15.93
2023-02-23T13:36:46.012Z,13.60
2023-02-23T13:42:16.290Z,16.50
2023-02-23T13:47:36.476Z,15.30
2023-02-23T13:52:42.605Z,16.65
2023-02-23T13:57:44.416Z,12.38
2023-02-23T14:02:46.966Z,15.13
2023-02-23T14:08:04.740Z,17.95
2023-02-23T14:13:18.264Z,14.23
2023-02-23T14:18:26.305Z,12.38
2023-02-23T14:23:50.708Z,15.55
2023-02-23T14:29:26.020Z,15.02
2023-02-23T14:34:54.197Z,12.95
2023-02-23T14:40:02.005Z,15.00
2023-02-23T14:50:31.492Z,11.77
2023-02-23T14:55:37.897Z,15.05
2023-02-23T15:00:42.668Z,16.27
2023-02-23T15:05:52.860Z,20.30
2023-02-23T15:11:13.626Z,17.65
2023-02-23T15:16:23.194Z,19.45
2023-02-23T15:21:25.164Z,20.05
2023-02-23T15:26:36.865Z,20.92
2023-02-23T15:31:41.102Z,18.55
2023-02-23T15:36:47.203Z,24.35
2023-02-23T15:41:50.007Z,20.63
2023-02-23T15:47:20.663Z,20.40
2023-02-23T15:52:25.099Z,20.38
2023-02-23T15:57:31.973Z,33.78
2023-02-23T16:02:36.878Z,22.93
2023-02-23T16:07:43.569Z,28.33
2023-02-23T16:12:49.919Z,31.35
2023-02-23T16:18:02.639Z,18.85
2023-02-23T16:23:06.774Z,22.77
2023-02-23T16:28:12.983Z,32.75
2023-02-23T16:33:24.350Z,22.30
2023-02-23T16:38:38.092Z,26.05
2023-02-23T16:43:39.945Z,16.92
2023-02-23T16:48:41.773Z,21.33
2023-02-23T16:53:44.792Z,26.40
2023-02-23T16:58:49.742Z,27.95
2023-02-23T17:03:54.069Z,25.38
2023-02-23T17:08:58.918Z,25.08
2023-02-23T17:14:01.036Z,33.85
2023-02-23T17:19:02.933Z,31.02
2023-02-23T17:24:05.120Z,27.48
2023-02-23T17:29:07.035Z,24.88
2023-02-23T17:34:08.977Z,31.20
2023-02-23T17:39:14.318Z,28.83
2023-02-23T17:44:16.138Z,30.10
2023-02-23T17:49:18.257Z,36.58
2023-02-23T17:54:20.264Z,42.67
2023-02-23T17:59:22.147Z,33.50
2023-02-23T18:04:24.344Z,36.15
2023-02-23T18:09:26.566Z,34.83
2023-02-23T18:14:28.721Z,30.80
2023-02-23T18:19:31.324Z,33.75
2023-02-23T18:24:33.625Z,36.17
2023-02-23T18:29:36.686Z,31.00
2023-02-23T18:34:38.585Z,35.78
2023-02-23T18:39:40.498Z,59.05
2023-02-23T18:44:42.672Z,43.72
2023-02-23T18:49:44.797Z,40.45
2023-02-23T18:54:48.851Z,38.88
2023-02-23T18:59:50.754Z,31.20
2023-02-23T19:04:52.554Z,31.90
2023-02-23T19:09:54.512Z,30.92
2023-02-23T19:14:59.740Z,35.20
2023-02-23T19:20:01.965Z,42.97
2023-02-23T19:25:04.063Z,28.27
2023-02-23T19:30:10.107Z,29.92
2023-02-23T19:35:14.973Z,32.67
2023-02-23T19:40:20.970Z,30.20
2023-02-23T19:45:24.959Z,31.10
2023-02-23T19:50:26.762Z,27.35
2023-02-23T19:55:28.529Z,31.70
2023-02-23T20:00:31.468Z,32.45
2023-02-23T20:05:42.454Z,33.13
2023-02-23T20:10:45.520Z,30.13
2023-02-23T20:15:47.425Z,29.38
2023-02-23T20:20:49.376Z,32.53
2023-02-23T20:25:52.615Z,28.27
2023-02-23T20:30:54.720Z,26.45
2023-02-23T20:35:57.441Z,25.50
2023-02-23T20:41:03.089Z,22.33
2023-02-23T20:46:06.394Z,27.92
2023-02-23T20:51:13.091Z,20.90
2023-02-23T20:56:17.871Z,20.58
2023-02-23T21:01:23.828Z,21.15
2023-02-23T21:06:27.875Z,21.58
2023-02-23T21:11:31.402Z,22.38
2023-02-23T21:16:33.313Z,22.92
2023-02-23T21:21:44.379Z,21.98
2023-02-23T21:26:46.663Z,19.02
2023-02-23T21:31:52.335Z,26.40
2023-02-23T21:36:59.370Z,27.75
2023-02-23T21:42:01.299Z,26.27
2023-02-23T21:47:07.147Z,31.90
2023-02-23T21:52:10.022Z,27.88
2023-02-23T21:57:11.873Z,32.80
2023-02-23T22:02:13.734Z,35.65
2023-02-23T22:07:17.000Z,33.17
2023-02-23T22:12:18.872Z,38.17
2023-02-23T22:17:20.804Z,46.45
2023-02-23T22:22:23.144Z,56.75
2023-02-23T22:27:25.091Z,51.47
2023-02-23T22:32:27.430Z,47.90
2023-02-23T22:37:31.695Z,50.45
2023-02-23T22:42:35.520Z,45.90
2023-02-23T22:47:37.696Z,36.08
2023-02-23T22:52:40.968Z,33.60
2023-02-23T22:57:43.166Z,29.15
2023-02-23T23:02:45.117Z,27.90
2023-02-23T23:07:47.729Z,29.75
2023-02-23T23:12:49.830Z,36.45
2023-02-23T23:17:51.719Z,29.95
2023-02-23T23:22:53.692Z,34.85
2023-02-23T23:27:55.825Z,39.40
2023-02-23T23:32:58.095Z,35.13
2023-02-23T23:38:03.158Z,38.80
2023-02-23T23:43:07.904Z,52.10
2023-02-23T23:48:09.941Z,41.83
2023-02-23T23:53:11.929Z,41.00
2023-02-23T23:58:18.450Z,40.95
